sensor_id;sensor_type;location;lat;lon;timestamp;pressure;altitude;pressure_sealevel;temperature;humidity
75886;BME280;64561;44.018;10.144;2023-04-25T00:01:56;100854.97;;;16.05;70.65
75886;BME280;64561;44.018;10.144;2023-04-25T00:04:23;100850.69;;;16.06;70.68
75886;BME280;64561;44.018;10.144;2023-04-25T00:06:50;100852.41;;;16.08;70.12
75886;BME280;64561;44.018;10.144;2023-04-25T00:09:18;100854.13;;;16.08;69.80
75886;BME280;64561;44.018;10.144;2023-04-25T00:11:45;100843.81;;;16.05;70.14
75886;BME280;64561;44.018;10.144;2023-04-25T00:14:12;100847.25;;;16.10;69.87
75886;BME280;64561;44.018;10.144;2023-04-25T00:16:39;100840.34;;;16.06;70.10
75886;BME280;64561;44.018;10.144;2023-04-25T00:19:07;100841.22;;;16.05;70.25
75886;BME280;64561;44.018;10.144;2023-04-25T00:21:36;100831.75;;;16.04;70.23
75886;BME280;64561;44.018;10.144;2023-04-25T00:24:04;100830.03;;;16.01;70.50
75886;BME280;64561;44.018;10.144;2023-04-25T00:26:31;100824.84;;;16.06;69.76
75886;BME280;64561;44.018;10.144;2023-04-25T00:28:58;100824.84;;;16.03;70.25
75886;BME280;64561;44.018;10.144;2023-04-25T00:31:25;100813.69;;;16.04;70.04
75886;BME280;64561;44.018;10.144;2023-04-25T00:33:51;100821.44;;;16.04;70.04
75886;BME280;64561;44.018;10.144;2023-04-25T00:36:19;100815.41;;;16.05;69.93
75886;BME280;64561;44.018;10.144;2023-04-25T00:38:46;100822.28;;;16.04;70.15
75886;BME280;64561;44.018;10.144;2023-04-25T00:41:13;100811.13;;;16.00;70.57
75886;BME280;64561;44.018;10.144;2023-04-25T00:43:40;100808.53;;;16.08;70.51
75886;BME280;64561;44.018;10.144;2023-04-25T00:46:07;100810.22;;;16.06;70.67
75886;BME280;64561;44.018;10.144;2023-04-25T00:48:34;100815.38;;;16.06;71.36
75886;BME280;64561;44.018;10.144;2023-04-25T00:51:01;100806.81;;;16.01;70.96
75886;BME280;64561;44.018;10.144;2023-04-25T00:53:28;100801.63;;;15.98;70.93
75886;BME280;64561;44.018;10.144;2023-04-25T00:55:56;100803.34;;;15.96;71.06
75886;BME280;64561;44.018;10.144;2023-04-25T00:58:23;100792.16;;;15.97;70.54
75886;BME280;64561;44.018;10.144;2023-04-25T01:00:51;100787.00;;;15.97;70.49
75886;BME280;64561;44.018;10.144;2023-04-25T01:03:19;100800.78;;;15.97;70.76
75886;BME280;64561;44.018;10.144;2023-04-25T01:05:47;100793.00;;;15.90;70.05
75886;BME280;64561;44.018;10.144;2023-04-25T01:08:14;100785.31;;;15.97;69.23
75886;BME280;64561;44.018;10.144;2023-04-25T01:10:41;100774.97;;;15.96;69.70
75886;BME280;64561;44.018;10.144;2023-04-25T01:13:08;100786.16;;;15.98;68.72
75886;BME280;64561;44.018;10.144;2023-04-25T01:15:35;100780.97;;;15.99;68.94
75886;BME280;64561;44.018;10.144;2023-04-25T01:18:04;100780.13;;;15.97;69.13
75886;BME280;64561;44.018;10.144;2023-04-25T01:20:33;100780.13;;;16.00;68.22
75886;BME280;64561;44.018;10.144;2023-04-25T01:23:01;100775.84;;;16.04;67.76
75886;BME280;64561;44.018;10.144;2023-04-25T01:25:31;100771.53;;;16.05;67.56
75886;BME280;64561;44.018;10.144;2023-04-25T01:27:58;100772.38;;;16.05;67.90
75886;BME280;64561;44.018;10.144;2023-04-25T01:30:26;100774.09;;;16.03;68.40
75886;BME280;64561;44.018;10.144;2023-04-25T01:32:58;100772.41;;;16.04;68.48
75886;BME280;64561;44.018;10.144;2023-04-25T01:35:27;100774.09;;;16.06;68.13
75886;BME280;64561;44.018;10.144;2023-04-25T01:37:54;100770.66;;;16.12;67.77
75886;BME280;64561;44.018;10.144;2023-04-25T01:40:21;100768.06;;;16.09;67.72
75886;BME280;64561;44.018;10.144;2023-04-25T01:42:51;100757.75;;;16.06;67.98
75886;BME280;64561;44.018;10.144;2023-04-25T01:45:19;100758.59;;;16.06;68.12
75886;BME280;64561;44.018;10.144;2023-04-25T01:47:47;100749.16;;;16.04;68.77
75886;BME280;64561;44.018;10.144;2023-04-25T01:50:18;100751.72;;;16.02;68.99
75886;BME280;64561;44.018;10.144;2023-04-25T01:52:45;100747.41;;;16.03;68.93
75886;BME280;64561;44.018;10.144;2023-04-25T01:55:13;100752.59;;;15.99;68.98
75886;BME280;64561;44.018;10.144;2023-04-25T01:57:49;100755.16;;;15.99;68.78
75886;BME280;64561;44.018;10.144;2023-04-25T02:00:18;100750.88;;;16.02;68.97
75886;BME280;64561;44.018;10.144;2023-04-25T02:02:45;100745.69;;;16.06;68.97
75886;BME280;64561;44.018;10.144;2023-04-25T02:05:39;100749.16;;;16.04;68.72
75886;BME280;64561;44.018;10.144;2023-04-25T02:08:09;100737.09;;;16.03;69.14
75886;BME280;64561;44.018;10.144;2023-04-25T02:10:37;100740.56;;;16.05;68.90
75886;BME280;64561;44.018;10.144;2023-04-25T02:13:13;100735.38;;;16.02;68.97
75886;BME280;64561;44.018;10.144;2023-04-25T02:15:47;100737.94;;;16.03;68.62
75886;BME280;64561;44.018;10.144;2023-04-25T02:18:17;100729.34;;;16.06;67.27
75886;BME280;64561;44.018;10.144;2023-04-25T02:20:44;100727.66;;;16.02;67.16
75886;BME280;64561;44.018;10.144;2023-04-25T02:23:12;100727.63;;;16.00;67.41
75886;BME280;64561;44.018;10.144;2023-04-25T02:25:38;100730.22;;;15.98;66.98
75886;BME280;64561;44.018;10.144;2023-04-25T02:28:05;100733.66;;;16.05;66.94
75886;BME280;64561;44.018;10.144;2023-04-25T02:30:32;100725.94;;;16.00;67.24
75886;BME280;64561;44.018;10.144;2023-04-25T02:32:59;100725.03;;;16.00;66.69
75886;BME280;64561;44.018;10.144;2023-04-25T02:35:26;100727.66;;;16.02;66.75
75886;BME280;64561;44.018;10.144;2023-04-25T02:37:54;100719.88;;;16.03;66.32
75886;BME280;64561;44.018;10.144;2023-04-25T02:40:21;100725.03;;;16.06;65.64
75886;BME280;64561;44.018;10.144;2023-04-25T02:42:48;100708.72;;;16.07;65.84
75886;BME280;64561;44.018;10.144;2023-04-25T02:45:14;100698.41;;;16.04;65.84
75886;BME280;64561;44.018;10.144;2023-04-25T02:47:41;100696.66;;;16.05;66.28
75886;BME280;64561;44.018;10.144;2023-04-25T02:50:08;100689.78;;;15.99;66.58
75886;BME280;64561;44.018;10.144;2023-04-25T02:52:35;100689.78;;;15.99;66.19
75886;BME280;64561;44.018;10.144;2023-04-25T02:55:12;100683.78;;;15.98;66.26
75886;BME280;64561;44.018;10.144;2023-04-25T02:57:40;100693.22;;;15.96;65.95
75886;BME280;64561;44.018;10.144;2023-04-25T03:00:10;100689.78;;;15.93;66.37
75886;BME280;64561;44.018;10.144;2023-04-25T03:02:38;100694.09;;;15.89;66.85
75886;BME280;64561;44.018;10.144;2023-04-25T03:05:05;100690.66;;;15.86;67.53
75886;BME280;64561;44.018;10.144;2023-04-25T03:07:32;100683.78;;;15.86;67.77
75886;BME280;64561;44.018;10.144;2023-04-25T03:09:59;100671.72;;;15.90;66.99
75886;BME280;64561;44.018;10.144;2023-04-25T03:12:28;100663.13;;;15.91;66.54
75886;BME280;64561;44.018;10.144;2023-04-25T03:14:56;100668.28;;;15.89;66.56
75886;BME280;64561;44.018;10.144;2023-04-25T03:17:22;100662.28;;;15.89;66.54
75886;BME280;64561;44.018;10.144;2023-04-25T03:19:49;100668.28;;;15.85;66.91
75886;BME280;64561;44.018;10.144;2023-04-25T03:22:16;100659.69;;;15.78;66.94
75886;BME280;64561;44.018;10.144;2023-04-25T03:24:43;100668.28;;;15.86;67.36
75886;BME280;64561;44.018;10.144;2023-04-25T03:27:10;100663.97;;;15.82;66.96
75886;BME280;64561;44.018;10.144;2023-04-25T03:29:37;100652.81;;;15.77;66.85
75886;BME280;64561;44.018;10.144;2023-04-25T03:32:04;100652.81;;;15.77;66.91
75886;BME280;64561;44.018;10.144;2023-04-25T03:34:31;100651.97;;;15.76;66.80
75886;BME280;64561;44.018;10.144;2023-04-25T03:36:59;100651.97;;;15.70;67.13
75886;BME280;64561;44.018;10.144;2023-04-25T03:39:27;100655.41;;;15.74;66.81
75886;BME280;64561;44.018;10.144;2023-04-25T03:41:55;100650.22;;;15.72;66.76
75886;BME280;64561;44.018;10.144;2023-04-25T03:44:22;100641.63;;;15.72;66.78
75886;BME280;64561;44.018;10.144;2023-04-25T03:46:49;100645.06;;;15.75;66.57
75886;BME280;64561;44.018;10.144;2023-04-25T03:49:16;100639.91;;;15.71;66.81
75886;BME280;64561;44.018;10.144;2023-04-25T03:52:02;100644.22;;;15.75;66.64
75886;BME280;64561;44.018;10.144;2023-04-25T03:54:34;100642.47;;;15.72;66.86
75886;BME280;64561;44.018;10.144;2023-04-25T03:57:21;100650.22;;;15.69;67.08
75886;BME280;64561;44.018;10.144;2023-04-25T03:59:48;100648.50;;;15.73;66.53
75886;BME280;64561;44.018;10.144;2023-04-25T04:02:15;100652.81;;;15.71;66.79
75886;BME280;64561;44.018;10.144;2023-04-25T04:04:42;100647.66;;;15.71;66.64
75886;BME280;64561;44.018;10.144;2023-04-25T04:07:12;100651.09;;;15.71;66.40
75886;BME280;64561;44.018;10.144;2023-04-25T04:09:41;100645.09;;;15.68;66.90
75886;BME280;64561;44.018;10.144;2023-04-25T04:12:13;100644.19;;;15.66;67.25
75886;BME280;64561;44.018;10.144;2023-04-25T04:14:41;100641.63;;;15.69;66.61
75886;BME280;64561;44.018;10.144;2023-04-25T04:17:08;100636.44;;;15.63;66.93
75886;BME280;64561;44.018;10.144;2023-04-25T04:19:36;100642.44;;;15.66;67.15
75886;BME280;64561;44.018;10.144;2023-04-25T04:22:08;100630.47;;;15.68;67.42
75886;BME280;64561;44.018;10.144;2023-04-25T04:24:35;100629.56;;;15.63;67.80
75886;BME280;64561;44.018;10.144;2023-04-25T04:27:05;100630.44;;;15.70;66.57
75886;BME280;64561;44.018;10.144;2023-04-25T04:29:39;100624.41;;;15.65;67.09
75886;BME280;64561;44.018;10.144;2023-04-25T04:32:24;100627.84;;;15.62;66.47
75886;BME280;64561;44.018;10.144;2023-04-25T04:34:53;100633.88;;;15.67;66.59
75886;BME280;64561;44.018;10.144;2023-04-25T04:37:22;100637.31;;;15.65;67.15
75886;BME280;64561;44.018;10.144;2023-04-25T04:39:50;100623.53;;;15.61;67.25
75886;BME280;64561;44.018;10.144;2023-04-25T04:42:30;100634.72;;;15.66;67.17
75886;BME280;64561;44.018;10.144;2023-04-25T04:45:15;100645.88;;;15.67;67.01
75886;BME280;64561;44.018;10.144;2023-04-25T04:48:01;100637.31;;;15.65;66.93
75886;BME280;64561;44.018;10.144;2023-04-25T04:50:51;100644.19;;;15.67;66.87
75886;BME280;64561;44.018;10.144;2023-04-25T04:53:24;100645.91;;;15.70;66.64
75886;BME280;64561;44.018;10.144;2023-04-25T04:56:09;100643.34;;;15.76;67.16
75886;BME280;64561;44.018;10.144;2023-04-25T04:59:05;100643.34;;;15.73;67.58
75886;BME280;64561;44.018;10.144;2023-04-25T05:01:40;100650.25;;;15.80;67.36
75886;BME280;64561;44.018;10.144;2023-04-25T05:04:33;100648.50;;;15.79;67.67
75886;BME280;64561;44.018;10.144;2023-04-25T05:07:08;100657.13;;;15.80;68.08
75886;BME280;64561;44.018;10.144;2023-04-25T05:10:07;100650.22;;;15.78;67.51
75886;BME280;64561;44.018;10.144;2023-04-25T05:12:43;100666.56;;;15.82;66.76
75886;BME280;64561;44.018;10.144;2023-04-25T05:15:31;100669.13;;;15.79;67.09
75886;BME280;64561;44.018;10.144;2023-04-25T05:18:23;100668.31;;;15.77;67.42
75886;BME280;64561;44.018;10.144;2023-04-25T05:21:04;100664.00;;;15.81;67.43
75886;BME280;64561;44.018;10.144;2023-04-25T05:23:47;100647.66;;;15.74;67.46
75886;BME280;64561;44.018;10.144;2023-04-25T05:26:43;100643.34;;;15.77;67.48
75886;BME280;64561;44.018;10.144;2023-04-25T05:29:33;100653.66;;;15.81;67.46
75886;BME280;64561;44.018;10.144;2023-04-25T05:32:07;100654.53;;;15.84;67.75
75886;BME280;64561;44.018;10.144;2023-04-25T05:34:35;100647.66;;;15.83;68.38
75886;BME280;64561;44.018;10.144;2023-04-25T05:37:05;100652.81;;;15.86;68.10
75886;BME280;64561;44.018;10.144;2023-04-25T05:39:37;100656.25;;;15.87;68.79
75886;BME280;64561;44.018;10.144;2023-04-25T05:42:14;100660.53;;;15.91;67.81
75886;BME280;64561;44.018;10.144;2023-04-25T05:44:51;100655.41;;;15.86;67.99
75886;BME280;64561;44.018;10.144;2023-04-25T05:47:44;100639.91;;;15.82;67.13
75886;BME280;64561;44.018;10.144;2023-04-25T05:50:28;100651.97;;;15.89;66.82
75886;BME280;64561;44.018;10.144;2023-04-25T05:53:02;100648.47;;;15.91;67.65
75886;BME280;64561;44.018;10.144;2023-04-25T05:55:31;100647.66;;;15.92;68.22
75886;BME280;64561;44.018;10.144;2023-04-25T05:58:00;100648.47;;;15.94;68.29
75886;BME280;64561;44.018;10.144;2023-04-25T06:00:28;100643.31;;;15.88;69.01
75886;BME280;64561;44.018;10.144;2023-04-25T06:02:55;100655.38;;;15.91;69.26
75886;BME280;64561;44.018;10.144;2023-04-25T06:05:23;100643.34;;;15.87;69.66
75886;BME280;64561;44.018;10.144;2023-04-25T06:07:50;100646.78;;;15.92;69.91
75886;BME280;64561;44.018;10.144;2023-04-25T06:10:17;100647.66;;;15.89;70.20
75886;BME280;64561;44.018;10.144;2023-04-25T06:12:45;100644.19;;;15.96;70.09
75886;BME280;64561;44.018;10.144;2023-04-25T06:15:14;100645.06;;;16.02;69.81
75886;BME280;64561;44.018;10.144;2023-04-25T06:17:54;100649.34;;;16.01;70.08
75886;BME280;64561;44.018;10.144;2023-04-25T06:20:21;100646.75;;;16.03;70.28
75886;BME280;64561;44.018;10.144;2023-04-25T06:22:51;100640.78;;;15.97;70.79
75886;BME280;64561;44.018;10.144;2023-04-25T06:25:23;100642.47;;;15.95;70.53
75886;BME280;64561;44.018;10.144;2023-04-25T06:27:50;100636.47;;;15.95;70.84
75886;BME280;64561;44.018;10.144;2023-04-25T06:30:17;100639.91;;;15.98;71.07
75886;BME280;64561;44.018;10.144;2023-04-25T06:32:52;100654.50;;;16.06;71.38
75886;BME280;64561;44.018;10.144;2023-04-25T06:35:23;100645.03;;;16.08;71.75
75886;BME280;64561;44.018;10.144;2023-04-25T06:37:50;100637.28;;;16.06;71.42
75886;BME280;64561;44.018;10.144;2023-04-25T06:40:20;100640.75;;;16.04;71.57
75886;BME280;64561;44.018;10.144;2023-04-25T06:42:47;100632.13;;;16.06;71.45
75886;BME280;64561;44.018;10.144;2023-04-25T06:45:33;100630.41;;;16.08;71.34
75886;BME280;64561;44.018;10.144;2023-04-25T06:48:00;100629.53;;;16.06;71.00
75886;BME280;64561;44.018;10.144;2023-04-25T06:50:27;100625.28;;;16.00;71.14
75886;BME280;64561;44.018;10.144;2023-04-25T06:52:54;100628.69;;;16.06;71.24
75886;BME280;64561;44.018;10.144;2023-04-25T06:55:22;100626.97;;;16.06;71.63
75886;BME280;64561;44.018;10.144;2023-04-25T06:58:06;100625.25;;;16.13;72.05
75886;BME280;64561;44.018;10.144;2023-04-25T07:00:53;100632.09;;;16.21;72.20
75886;BME280;64561;44.018;10.144;2023-04-25T07:03:23;100631.22;;;16.30;71.23
75886;BME280;64561;44.018;10.144;2023-04-25T07:05:55;100626.91;;;16.35;70.76
75886;BME280;64561;44.018;10.144;2023-04-25T07:08:23;100626.00;;;16.39;70.56
75886;BME280;64561;44.018;10.144;2023-04-25T07:10:50;100627.75;;;16.37;70.57
75886;BME280;64561;44.018;10.144;2023-04-25T07:13:17;100638.09;;;16.33;70.81
75886;BME280;64561;44.018;10.144;2023-04-25T07:15:44;100637.25;;;16.31;71.42
75886;BME280;64561;44.018;10.144;2023-04-25T07:18:12;100640.69;;;16.31;71.80
75886;BME280;64561;44.018;10.144;2023-04-25T07:20:39;100649.28;;;16.33;72.07
75886;BME280;64561;44.018;10.144;2023-04-25T07:23:06;100646.69;;;16.30;72.33
75886;BME280;64561;44.018;10.144;2023-04-25T07:25:33;100645.00;;;16.28;71.91
75886;BME280;64561;44.018;10.144;2023-04-25T07:28:02;100647.56;;;16.34;72.37
75886;BME280;64561;44.018;10.144;2023-04-25T07:30:31;100646.69;;;16.30;72.99
75886;BME280;64561;44.018;10.144;2023-04-25T07:33:02;100646.72;;;16.27;72.72
75886;BME280;64561;44.018;10.144;2023-04-25T07:35:29;100644.13;;;16.27;72.45
75886;BME280;64561;44.018;10.144;2023-04-25T07:37:56;100639.84;;;16.26;72.66
75886;BME280;64561;44.018;10.144;2023-04-25T07:40:23;100638.97;;;16.29;72.45
75886;BME280;64561;44.018;10.144;2023-04-25T07:42:56;100641.56;;;16.26;72.06
75886;BME280;64561;44.018;10.144;2023-04-25T07:45:33;100632.09;;;16.26;71.75
75886;BME280;64561;44.018;10.144;2023-04-25T07:48:01;100640.69;;;16.31;72.85
75886;BME280;64561;44.018;10.144;2023-04-25T07:50:30;100630.34;;;16.37;73.52
75886;BME280;64561;44.018;10.144;2023-04-25T07:52:57;100638.91;;;16.49;73.22
75886;BME280;64561;44.018;10.144;2023-04-25T07:55:32;100628.56;;;16.53;71.96
75886;BME280;64561;44.018;10.144;2023-04-25T07:58:11;100638.00;;;16.65;72.76
75886;BME280;64561;44.018;10.144;2023-04-25T08:00:43;100632.81;;;16.76;70.87
75886;BME280;64561;44.018;10.144;2023-04-25T08:03:33;100633.63;;;16.84;70.53
75886;BME280;64561;44.018;10.144;2023-04-25T08:06:03;100637.00;;;16.97;69.78
75886;BME280;64561;44.018;10.144;2023-04-25T08:08:40;100633.53;;;17.04;69.99
75886;BME280;64561;44.018;10.144;2023-04-25T08:11:09;100635.16;;;17.17;69.97
75886;BME280;64561;44.018;10.144;2023-04-25T08:13:37;100634.22;;;17.29;70.57
75886;BME280;64561;44.018;10.144;2023-04-25T08:16:04;100633.31;;;17.34;70.50
75886;BME280;64561;44.018;10.144;2023-04-25T08:18:31;100639.31;;;17.41;68.06
75886;BME280;64561;44.018;10.144;2023-04-25T08:20:59;100630.69;;;17.41;68.55
75886;BME280;64561;44.018;10.144;2023-04-25T08:23:26;100641.88;;;17.44;68.44
75886;BME280;64561;44.018;10.144;2023-04-25T08:26:02;100646.97;;;17.53;69.54
75886;BME280;64561;44.018;10.144;2023-04-25T08:28:31;100654.75;;;17.52;69.37
75886;BME280;64561;44.018;10.144;2023-04-25T08:31:04;100640.97;;;17.50;69.28
75886;BME280;64561;44.018;10.144;2023-04-25T08:33:39;100653.84;;;17.56;67.72
75886;BME280;64561;44.018;10.144;2023-04-25T08:36:26;100651.28;;;17.53;68.12
75886;BME280;64561;44.018;10.144;2023-04-25T08:39:15;100659.03;;;17.56;67.54
75886;BME280;64561;44.018;10.144;2023-04-25T08:41:56;100662.44;;;17.59;66.82
75886;BME280;64561;44.018;10.144;2023-04-25T08:44:23;100655.59;;;17.55;67.17
75886;BME280;64561;44.018;10.144;2023-04-25T08:46:52;100658.94;;;17.68;69.01
75886;BME280;64561;44.018;10.144;2023-04-25T08:49:30;100656.31;;;17.73;69.44
75886;BME280;64561;44.018;10.144;2023-04-25T08:52:04;100657.97;;;17.83;67.84
75886;BME280;64561;44.018;10.144;2023-04-25T08:54:34;100663.19;;;17.81;68.18
75886;BME280;64561;44.018;10.144;2023-04-25T08:57:06;100664.06;;;17.79;68.83
75886;BME280;64561;44.018;10.144;2023-04-25T08:59:34;100663.16;;;17.85;67.65
75886;BME280;64561;44.018;10.144;2023-04-25T09:02:05;100675.13;;;17.95;67.90
75886;BME280;64561;44.018;10.144;2023-04-25T09:04:32;100656.16;;;17.93;68.03
75886;BME280;64561;44.018;10.144;2023-04-25T09:07:00;100675.94;;;18.03;68.06
75886;BME280;64561;44.018;10.144;2023-04-25T09:09:29;100672.50;;;18.02;65.86
75886;BME280;64561;44.018;10.144;2023-04-25T09:11:56;100670.81;;;17.97;66.51
75886;BME280;64561;44.018;10.144;2023-04-25T09:14:24;100669.94;;;17.98;68.15
75886;BME280;64561;44.018;10.144;2023-04-25T09:17:22;100671.53;;;18.14;64.93
75886;BME280;64561;44.018;10.144;2023-04-25T09:19:52;100670.69;;;18.09;65.69
75886;BME280;64561;44.018;10.144;2023-04-25T09:22:24;100669.63;;;18.30;66.32
75886;BME280;64561;44.018;10.144;2023-04-25T09:24:52;100673.84;;;18.39;66.29
75886;BME280;64561;44.018;10.144;2023-04-25T09:27:22;100669.56;;;18.35;65.39
75886;BME280;64561;44.018;10.144;2023-04-25T09:29:59;100680.72;;;18.43;67.42
75886;BME280;64561;44.018;10.144;2023-04-25T09:32:34;100679.91;;;18.36;67.56
75886;BME280;64561;44.018;10.144;2023-04-25T09:35:01;100671.31;;;18.33;68.63
75886;BME280;64561;44.018;10.144;2023-04-25T09:37:30;100682.44;;;18.41;68.21
75886;BME280;64561;44.018;10.144;2023-04-25T09:40:05;100670.38;;;18.41;68.67
75886;BME280;64561;44.018;10.144;2023-04-25T09:42:35;100676.44;;;18.37;69.21
75886;BME280;64561;44.018;10.144;2023-04-25T09:45:03;100677.25;;;18.41;70.13
75886;BME280;64561;44.018;10.144;2023-04-25T09:47:37;100685.84;;;18.47;70.03
75886;BME280;64561;44.018;10.144;2023-04-25T09:50:14;100687.44;;;18.59;69.25
75886;BME280;64561;44.018;10.144;2023-04-25T09:52:44;100676.16;;;18.62;69.14
75886;BME280;64561;44.018;10.144;2023-04-25T09:55:18;100688.31;;;18.60;70.33
75886;BME280;64561;44.018;10.144;2023-04-25T09:57:50;100676.94;;;18.70;69.74
75886;BME280;64561;44.018;10.144;2023-04-25T10:00:18;100677.75;;;18.77;69.35
75886;BME280;64561;44.018;10.144;2023-04-25T10:02:47;100682.97;;;18.75;69.57
75886;BME280;64561;44.018;10.144;2023-04-25T10:05:34;100666.41;;;18.85;69.19
75886;BME280;64561;44.018;10.144;2023-04-25T10:08:03;100676.81;;;18.84;68.46
75886;BME280;64561;44.018;10.144;2023-04-25T10:10:32;100675.84;;;18.92;68.34
75886;BME280;64561;44.018;10.144;2023-04-25T10:13:04;100673.25;;;18.91;69.12
75886;BME280;64561;44.018;10.144;2023-04-25T10:15:35;100665.41;;;18.97;67.04
75886;BME280;64561;44.018;10.144;2023-04-25T10:18:06;100664.59;;;18.92;69.29
75886;BME280;64561;44.018;10.144;2023-04-25T10:20:33;100663.69;;;18.94;68.11
75886;BME280;64561;44.018;10.144;2023-04-25T10:23:13;100650.72;;;18.94;67.37
75886;BME280;64561;44.018;10.144;2023-04-25T10:25:42;100661.09;;;18.96;69.22
75886;BME280;64561;44.018;10.144;2023-04-25T10:28:09;100656.75;;;18.96;68.87
75886;BME280;64561;44.018;10.144;2023-04-25T10:30:36;100652.47;;;18.95;69.85
75886;BME280;64561;44.018;10.144;2023-04-25T10:33:16;100659.38;;;18.95;68.43
75886;BME280;64561;44.018;10.144;2023-04-25T10:35:44;100648.19;;;18.93;69.77
75886;BME280;64561;44.018;10.144;2023-04-25T10:38:14;100651.44;;;19.04;67.61
75886;BME280;64561;44.018;10.144;2023-04-25T10:40:41;100657.63;;;18.97;67.86
75886;BME280;64561;44.018;10.144;2023-04-25T10:46:00;100637.84;;;18.88;66.93
75886;BME280;64561;44.018;10.144;2023-04-25T10:48:31;100649.69;;;19.08;67.89
75886;BME280;64561;44.018;10.144;2023-04-25T10:51:07;100657.50;;;19.06;65.83
75886;BME280;64561;44.018;10.144;2023-04-25T10:53:35;100647.16;;;19.03;64.78
75886;BME280;64561;44.018;10.144;2023-04-25T10:56:19;100649.06;;;18.89;65.58
75886;BME280;64561;44.018;10.144;2023-04-25T10:58:47;100652.47;;;18.95;65.14
75886;BME280;64561;44.018;10.144;2023-04-25T11:01:21;100653.31;;;18.96;67.20
75886;BME280;64561;44.018;10.144;2023-04-25T11:03:57;100645.50;;;18.99;66.88
75886;BME280;64561;44.018;10.144;2023-04-25T11:06:29;100657.44;;;19.09;66.57
75886;BME280;64561;44.018;10.144;2023-04-25T11:09:00;100660.78;;;19.17;65.41
75886;BME280;64561;44.018;10.144;2023-04-25T11:11:28;100656.63;;;19.06;65.02
75886;BME280;64561;44.018;10.144;2023-04-25T11:13:55;100657.31;;;19.20;66.40
75886;BME280;64561;44.018;10.144;2023-04-25T11:16:24;100666.84;;;19.18;67.56
75886;BME280;64561;44.018;10.144;2023-04-25T11:18:57;100652.88;;;19.25;65.14
75886;BME280;64561;44.018;10.144;2023-04-25T11:21:25;100658.03;;;19.28;67.19
75886;BME280;64561;44.018;10.144;2023-04-25T11:23:58;100659.72;;;19.31;68.02
75886;BME280;64561;44.018;10.144;2023-04-25T11:26:26;100657.94;;;19.34;68.24
75886;BME280;64561;44.018;10.144;2023-04-25T11:28:57;100657.78;;;19.47;66.76
75886;BME280;64561;44.018;10.144;2023-04-25T11:31:24;100667.31;;;19.45;63.99
75886;BME280;64561;44.018;10.144;2023-04-25T11:33:53;100663.13;;;19.37;63.62
75886;BME280;64561;44.018;10.144;2023-04-25T11:36:23;100681.09;;;19.50;66.38
75886;BME280;64561;44.018;10.144;2023-04-25T11:38:51;100666.50;;;19.41;65.83
75886;BME280;64561;44.018;10.144;2023-04-25T11:41:19;100669.91;;;19.45;64.53
75886;BME280;64561;44.018;10.144;2023-04-25T11:43:47;100674.34;;;19.38;62.86
75886;BME280;64561;44.018;10.144;2023-04-25T11:46:15;100671.81;;;19.33;64.66
75886;BME280;64561;44.018;10.144;2023-04-25T11:48:43;100673.06;;;19.06;63.28
75886;BME280;64561;44.018;10.144;2023-04-25T11:51:12;100673.25;;;18.91;65.61
75886;BME280;64561;44.018;10.144;2023-04-25T11:53:44;100668.16;;;18.86;66.91
75886;BME280;64561;44.018;10.144;2023-04-25T11:56:11;100667.94;;;19.00;64.65
75886;BME280;64561;44.018;10.144;2023-04-25T11:59:04;100678.19;;;19.09;64.94
75886;BME280;64561;44.018;10.144;2023-04-25T12:01:34;100664.41;;;19.06;64.43
75886;BME280;64561;44.018;10.144;2023-04-25T12:06:42;100659.22;;;19.04;63.82
75886;BME280;64561;44.018;10.144;2023-04-25T12:09:11;100655.53;;;19.24;63.57
75886;BME280;64561;44.018;10.144;2023-04-25T12:14:11;100651.22;;;19.23;63.99
75886;BME280;64561;44.018;10.144;2023-04-25T12:16:45;100656.31;;;19.29;65.56
75886;BME280;64561;44.018;10.144;2023-04-25T12:19:16;100643.41;;;19.26;63.99
75886;BME280;64561;44.018;10.144;2023-04-25T12:21:44;100657.03;;;19.37;63.41
75886;BME280;64561;44.018;10.144;2023-04-25T12:24:25;100634.72;;;19.27;65.77
75886;BME280;64561;44.018;10.144;2023-04-25T12:26:53;100633.81;;;19.29;65.88
75886;BME280;64561;44.018;10.144;2023-04-25T12:29:26;100645.75;;;19.39;64.09
75886;BME280;64561;44.018;10.144;2023-04-25T12:32:04;100657.84;;;19.42;65.19
75886;BME280;64561;44.018;10.144;2023-04-25T12:34:33;100656.00;;;19.50;65.77
75886;BME280;64561;44.018;10.144;2023-04-25T12:37:02;100656.63;;;19.63;67.46
75886;BME280;64561;44.018;10.144;2023-04-25T12:39:29;100653.81;;;19.78;64.95
75886;BME280;64561;44.018;10.144;2023-04-25T12:41:56;100652.97;;;19.78;63.19
75886;BME280;64561;44.018;10.144;2023-04-25T12:44:22;100661.66;;;19.75;61.47
75886;BME280;64561;44.018;10.144;2023-04-25T12:46:49;100654.03;;;19.66;62.80
75886;BME280;64561;44.018;10.144;2023-04-25T12:49:16;100660.00;;;19.71;61.02
75886;BME280;64561;44.018;10.144;2023-04-25T12:51:45;100659.25;;;19.63;61.80
75886;BME280;64561;44.018;10.144;2023-04-25T12:54:12;100672.25;;;19.60;60.36
75886;BME280;64561;44.018;10.144;2023-04-25T12:56:40;100665.38;;;19.57;61.47
75886;BME280;64561;44.018;10.144;2023-04-25T12:59:07;100668.03;;;19.54;62.64
75886;BME280;64561;44.018;10.144;2023-04-25T13:01:34;100664.53;;;19.55;62.97
75886;BME280;64561;44.018;10.144;2023-04-25T13:04:02;100673.59;;;19.28;63.65
75886;BME280;64561;44.018;10.144;2023-04-25T13:06:29;100673.69;;;19.24;63.80
75886;BME280;64561;44.018;10.144;2023-04-25T13:08:57;100683.13;;;19.28;64.70